Time;durP1;ratioP1;P1;durP2;ratioP2;P2;SDS_P1;SDS_P2;PMS_P1;PMS_P2;Temp;Humidity;BMP_temperature;BMP_pressure;BME280_temperature;BME280_humidity;BME280_pressure;Samples;Min_cycle;Max_cycle;Signal;HPM_P1;HPM_P2
2020/12/31 00:01:28;;;;;;;40.43;29.63;;;4.60;93.20;;;;;;5097636;28;20130;-57
2020/12/31 00:03:55;;;;;;;35.40;27.63;;;4.50;93.50;;;;;;5098175;28;20039;-53
2020/12/31 00:06:20;;;;;;;40.33;29.27;;;4.50;93.50;;;;;;5095425;28;20119;-57
2020/12/31 00:08:47;;;;;;;41.53;30.67;;;4.50;93.50;;;;;;5092655;28;20122;-57
2020/12/31 00:11:13;;;;;;;36.10;28.80;;;4.50;93.30;;;;;;5103316;28;20204;-55
2020/12/31 00:13:39;;;;;;;39.57;29.97;;;4.50;94.00;;;;;;5081534;28;20036;-57
2020/12/31 00:16:09;;;;;;;42.80;31.27;;;4.50;93.40;;;;;;5099385;28;20048;-56
2020/12/31 00:18:35;;;;;;;44.20;31.20;;;4.50;93.50;;;;;;5092973;28;20446;-58
2020/12/31 00:21:02;;;;;;;40.50;29.77;;;4.50;93.50;;;;;;5098384;28;20089;-56
2020/12/31 00:23:27;;;;;;;40.83;30.87;;;4.50;93.40;;;;;;5095794;28;20524;-55
2020/12/31 00:25:54;;;;;;;42.03;30.93;;;4.50;93.80;;;;;;5072039;28;20071;-54
2020/12/31 00:28:21;;;;;;;38.87;30.03;;;4.50;93.80;;;;;;5095932;28;20035;-56
2020/12/31 00:30:48;;;;;;;41.87;30.67;;;4.50;93.50;;;;;;5095164;28;20028;-57
2020/12/31 00:33:18;;;;;;;49.17;31.87;;;4.40;93.20;;;;;;5097458;28;20517;-57
2020/12/31 00:35:55;;;;;;;43.13;30.37;;;4.40;93.00;;;;;;5092049;28;20032;-57
2020/12/31 00:38:22;;;;;;;41.63;30.17;;;4.40;93.70;;;;;;5100969;28;20473;-55
2020/12/31 00:40:47;;;;;;;40.90;29.83;;;4.40;93.40;;;;;;5097190;28;20047;-55
2020/12/31 00:43:13;;;;;;;44.73;30.90;;;4.40;93.70;;;;;;5096114;28;20135;-56
2020/12/31 00:45:39;;;;;;;41.23;29.17;;;4.40;93.70;;;;;;5080773;28;20050;-56
2020/12/31 00:48:04;;;;;;;40.70;29.53;;;4.40;93.70;;;;;;5099169;28;20110;-56
2020/12/31 00:50:30;;;;;;;38.60;28.97;;;4.40;93.70;;;;;;5095653;28;20658;-56
2020/12/31 00:52:56;;;;;;;36.83;28.07;;;4.40;93.70;;;;;;5100033;28;20568;-56
2020/12/31 00:55:21;;;;;;;39.70;30.77;;;4.40;93.60;;;;;;5094504;28;20413;-56
2020/12/31 00:57:47;;;;;;;37.97;28.13;;;4.40;93.70;;;;;;5084237;28;20136;-57
2020/12/31 01:00:13;;;;;;;39.57;29.37;;;4.30;93.70;;;;;;5094656;28;20040;-53
2020/12/31 01:02:39;;;;;;;40.80;28.67;;;4.40;93.90;;;;;;5098928;28;20047;-57
2020/12/31 01:05:12;;;;;;;39.73;29.00;;;4.40;93.90;;;;;;5099655;28;20040;-57
2020/12/31 01:07:38;;;;;;;41.30;28.60;;;4.40;93.80;;;;;;5098682;27;20036;-57
2020/12/31 01:10:08;;;;;;;40.20;30.00;;;4.40;93.60;;;;;;5103852;27;20048;-56
2020/12/31 01:12:55;;;;;;;38.03;29.00;;;4.40;93.70;;;;;;5095948;28;20040;-55
2020/12/31 01:15:20;;;;;;;38.50;28.37;;;4.40;93.70;;;;;;5099448;28;20088;-54
2020/12/31 01:17:46;;;;;;;42.07;29.63;;;4.40;93.60;;;;;;5098705;28;20032;-56
2020/12/31 01:20:12;;;;;;;40.03;28.43;;;4.40;93.50;;;;;;5100999;28;20505;-56
2020/12/31 01:22:38;;;;;;;36.43;28.93;;;4.50;93.70;;;;;;5097462;28;20051;-53
2020/12/31 01:25:04;;;;;;;41.13;29.10;;;4.40;93.70;;;;;;5098223;28;20052;-57
2020/12/31 01:27:30;;;;;;;36.87;27.67;;;4.40;94.30;;;;;;5100987;28;20044;-55
2020/12/31 01:29:55;;;;;;;38.43;29.23;;;4.40;93.80;;;;;;5083075;28;20402;-55
2020/12/31 01:32:24;;;;;;;40.27;29.53;;;4.40;93.50;;;;;;5100289;28;20486;-56
2020/12/31 01:34:53;;;;;;;39.60;29.17;;;4.40;93.60;;;;;;5098518;28;20048;-58
2020/12/31 01:37:20;;;;;;;39.57;29.83;;;4.40;93.60;;;;;;5096771;28;20048;-57
2020/12/31 01:39:46;;;;;;;37.17;29.00;;;4.40;93.70;;;;;;5085714;28;20071;-57
2020/12/31 01:42:12;;;;;;;40.37;29.40;;;4.40;94.00;;;;;;5094875;28;20093;-54
2020/12/31 01:44:38;;;;;;;43.83;31.23;;;4.40;93.90;;;;;;5100147;28;20048;-54
2020/12/31 01:47:04;;;;;;;43.63;31.83;;;4.40;93.80;;;;;;5095416;28;20118;-55
2020/12/31 01:49:32;;;;;;;39.07;29.10;;;4.40;93.70;;;;;;5099663;27;20115;-57
2020/12/31 01:52:00;;;;;;;39.77;28.97;;;4.40;93.70;;;;;;5088301;27;20027;-55
2020/12/31 01:54:26;;;;;;;44.07;32.57;;;4.30;93.80;;;;;;5094466;28;20055;-57
2020/12/31 01:56:56;;;;;;;43.33;30.10;;;4.30;93.90;;;;;;5093365;28;20426;-56
2020/12/31 01:59:22;;;;;;;42.50;31.33;;;4.30;93.80;;;;;;5098727;28;20123;-54
2020/12/31 02:01:49;;;;;;;43.47;31.60;;;4.30;93.80;;;;;;5100755;28;20115;-54
2020/12/31 02:04:16;;;;;;;45.27;33.93;;;4.20;93.60;;;;;;5098121;28;20036;-57
2020/12/31 02:06:42;;;;;;;45.20;33.90;;;4.20;93.80;;;;;;5097743;28;20397;-55
2020/12/31 02:09:08;;;;;;;42.47;33.50;;;4.20;93.80;;;;;;5097844;27;20032;-55
2020/12/31 02:11:34;;;;;;;45.13;33.97;;;4.20;93.90;;;;;;5099411;28;20100;-54
2020/12/31 02:13:59;;;;;;;47.93;35.20;;;4.20;94.00;;;;;;5094569;27;20346;-56
2020/12/31 02:16:27;;;;;;;47.27;34.67;;;4.20;93.90;;;;;;5101696;28;20400;-53
2020/12/31 02:18:56;;;;;;;48.40;33.67;;;4.10;93.90;;;;;;5096814;28;20097;-54
2020/12/31 02:21:26;;;;;;;45.80;35.43;;;4.10;94.10;;;;;;5096334;28;20039;-56
2020/12/31 02:23:52;;;;;;;44.13;35.77;;;4.10;94.00;;;;;;5093941;28;20485;-55
2020/12/31 02:26:24;;;;;;;50.93;37.37;;;4.10;94.10;;;;;;5099305;28;20123;-56
2020/12/31 02:28:50;;;;;;;49.43;36.90;;;4.10;93.80;;;;;;5091365;28;20143;-57
2020/12/31 02:31:15;;;;;;;45.97;36.13;;;4.10;93.90;;;;;;5099582;28;20039;-56
2020/12/31 02:33:46;;;;;;;53.17;38.33;;;4.00;93.80;;;;;;5102172;28;20504;-55
2020/12/31 02:36:13;;;;;;;48.13;38.27;;;4.00;93.90;;;;;;5101024;27;20552;-56
2020/12/31 02:38:40;;;;;;;51.80;39.70;;;3.90;93.70;;;;;;5096235;28;20035;-56
2020/12/31 02:41:06;;;;;;;51.43;38.90;;;3.90;93.50;;;;;;5095340;28;20523;-55
2020/12/31 02:43:32;;;;;;;53.23;39.90;;;4.00;93.80;;;;;;5098122;28;20031;-57
2020/12/31 02:45:57;;;;;;;49.90;39.67;;;3.90;93.50;;;;;;5092553;28;20055;-55
2020/12/31 02:48:23;;;;;;;50.57;38.47;;;3.90;93.60;;;;;;5095103;28;20477;-53
2020/12/31 02:50:49;;;;;;;47.10;36.03;;;3.90;93.80;;;;;;5095968;28;20505;-55
2020/12/31 02:53:14;;;;;;;48.43;35.77;;;3.80;94.10;;;;;;5101309;28;20500;-53
2020/12/31 02:55:40;;;;;;;45.77;34.83;;;3.90;94.10;;;;;;5099604;27;20469;-55
2020/12/31 02:58:06;;;;;;;46.30;36.30;;;3.90;94.40;;;;;;5097073;28;20047;-57
2020/12/31 03:00:31;;;;;;;48.10;35.10;;;3.80;94.10;;;;;;5090741;27;20398;-55
2020/12/31 03:02:57;;;;;;;44.10;35.40;;;3.80;94.40;;;;;;5100429;28;20069;-52
2020/12/31 03:05:23;;;;;;;48.00;35.80;;;3.90;94.30;;;;;;5092928;28;20040;-53
2020/12/31 03:07:48;;;;;;;43.87;33.93;;;3.90;94.30;;;;;;5093945;28;20497;-53
2020/12/31 03:10:14;;;;;;;48.13;35.87;;;3.90;94.20;;;;;;5082069;28;20031;-55
2020/12/31 03:12:39;;;;;;;46.30;35.20;;;3.90;94.30;;;;;;5095939;27;20576;-57
2020/12/31 03:15:09;;;;;;;46.87;36.63;;;3.90;94.30;;;;;;5100839;27;20613;-57
2020/12/31 03:17:35;;;;;;;49.80;35.53;;;4.00;94.30;;;;;;5090218;28;20036;-56
2020/12/31 03:20:01;;;;;;;42.10;33.57;;;4.00;94.50;;;;;;5102618;27;20078;-56
2020/12/31 03:22:30;;;;;;;46.50;34.93;;;3.90;94.40;;;;;;5096852;28;20051;-54
2020/12/31 03:24:56;;;;;;;47.70;35.73;;;3.90;94.50;;;;;;5094902;28;20047;-56
2020/12/31 03:27:21;;;;;;;45.80;34.83;;;4.00;94.80;;;;;;5097874;28;20362;-55
2020/12/31 03:29:47;;;;;;;48.03;34.43;;;4.00;94.60;;;;;;5103370;28;20032;-57
2020/12/31 03:32:13;;;;;;;41.53;33.53;;;4.00;94.40;;;;;;5098284;28;20437;-51
2020/12/31 03:34:38;;;;;;;45.90;34.03;;;4.00;94.50;;;;;;5098947;28;20048;-55
2020/12/31 03:37:04;;;;;;;44.53;35.93;;;4.00;94.70;;;;;;5094327;28;20094;-56
2020/12/31 03:39:29;;;;;;;44.90;34.73;;;4.10;94.80;;;;;;5081246;28;20319;-56
2020/12/31 03:41:55;;;;;;;43.30;35.03;;;4.10;94.20;;;;;;5098209;28;20047;-55
2020/12/31 03:44:21;;;;;;;44.63;34.03;;;4.10;94.10;;;;;;5096005;28;20695;-56
2020/12/31 03:46:46;;;;;;;45.10;36.63;;;4.10;94.40;;;;;;5090580;28;20050;-54
2020/12/31 03:49:12;;;;;;;45.93;35.87;;;4.10;94.30;;;;;;5101680;28;20443;-56
2020/12/31 03:51:40;;;;;;;47.50;36.23;;;4.00;94.20;;;;;;5097509;28;20538;-53
2020/12/31 03:54:06;;;;;;;47.47;36.70;;;4.00;94.00;;;;;;5092351;28;20059;-54
2020/12/31 03:56:32;;;;;;;46.27;35.60;;;4.00;94.00;;;;;;5097814;28;20066;-54
2020/12/31 03:58:57;;;;;;;47.93;36.60;;;4.00;94.10;;;;;;5093556;28;20043;-54
2020/12/31 04:01:33;;;;;;;49.80;39.13;;;4.00;93.80;;;;;;5097503;28;20074;-57
2020/12/31 04:07:21;;;;;;;48.97;37.43;;;4.00;93.90;;;;;;5043394;28;20058;-57
2020/12/31 04:09:47;;;;;;;51.77;39.00;;;3.90;94.00;;;;;;5096013;28;20413;-56
2020/12/31 04:12:12;;;;;;;49.30;38.43;;;3.90;94.00;;;;;;5097400;28;20035;-51
2020/12/31 04:14:38;;;;;;;52.67;40.83;;;3.90;94.00;;;;;;5079120;28;20051;-53
2020/12/31 04:17:03;;;;;;;51.10;38.43;;;3.90;93.80;;;;;;5098713;28;20063;-55
2020/12/31 04:19:29;;;;;;;52.77;40.37;;;3.90;93.50;;;;;;5081267;28;20879;-56
2020/12/31 04:21:55;;;;;;;50.33;39.30;;;3.90;93.90;;;;;;5088960;28;20044;-53
2020/12/31 04:24:20;;;;;;;51.33;38.83;;;3.90;93.70;;;;;;5089536;28;20470;-56
2020/12/31 04:26:50;;;;;;;56.20;41.13;;;3.90;93.70;;;;;;5095137;28;20058;-54
2020/12/31 04:29:16;;;;;;;50.37;39.13;;;3.90;93.70;;;;;;5090926;28;20032;-55
2020/12/31 04:31:42;;;;;;;53.40;39.30;;;3.90;93.90;;;;;;5091653;28;20446;-53
2020/12/31 04:34:07;;;;;;;50.27;40.40;;;3.90;94.00;;;;;;5093338;28;20139;-56
2020/12/31 04:36:34;;;;;;;52.23;40.80;;;3.90;94.00;;;;;;5098055;28;20119;-55
2020/12/31 04:38:59;;;;;;;58.37;42.00;;;3.90;94.00;;;;;;5097871;27;20050;-55
2020/12/31 04:41:25;;;;;;;55.93;42.10;;;3.80;93.60;;;;;;5101848;28;20373;-56
2020/12/31 04:43:51;;;;;;;55.67;43.33;;;3.80;93.80;;;;;;5093828;27;20043;-52
2020/12/31 04:46:20;;;;;;;58.23;44.00;;;3.70;93.80;;;;;;5092486;28;20417;-54
2020/12/31 04:48:55;;;;;;;55.20;43.43;;;3.70;93.70;;;;;;5098454;28;20110;-52
2020/12/31 04:51:26;;;;;;;54.63;44.25;;;3.60;93.50;;;;;;5091883;28;20043;-54
2020/12/31 04:53:54;;;;;;;58.30;46.03;;;3.50;93.50;;;;;;5097430;28;20051;-56
2020/12/31 04:56:25;;;;;;;57.87;44.17;;;3.50;93.80;;;;;;5095508;27;20127;-53
2020/12/31 04:58:51;;;;;;;59.23;43.47;;;3.50;93.90;;;;;;5090931;28;20055;-56
2020/12/31 05:01:17;;;;;;;58.20;43.70;;;3.60;93.90;;;;;;5094996;28;20035;-56
2020/12/31 05:03:42;;;;;;;55.57;43.47;;;3.50;93.90;;;;;;5100526;27;20441;-51
2020/12/31 05:06:12;;;;;;;60.20;43.50;;;3.60;93.70;;;;;;5093186;27;20044;-51
2020/12/31 05:08:38;;;;;;;55.80;42.57;;;3.50;94.20;;;;;;5099677;27;20036;-55
2020/12/31 05:11:04;;;;;;;58.83;42.83;;;3.60;94.00;;;;;;5098540;27;20533;-54
2020/12/31 05:13:29;;;;;;;54.47;42.93;;;3.60;93.80;;;;;;5096341;28;20118;-56
2020/12/31 05:15:55;;;;;;;55.27;43.33;;;3.60;93.90;;;;;;5102826;27;20044;-52
2020/12/31 05:18:27;;;;;;;57.80;42.50;;;3.60;94.00;;;;;;5094320;27;20031;-53
2020/12/31 05:20:55;;;;;;;59.90;43.23;;;3.70;94.00;;;;;;5096948;28;20090;-56
2020/12/31 05:23:26;;;;;;;61.03;44.60;;;3.60;93.90;;;;;;5096256;28;20044;-56
2020/12/31 05:25:53;;;;;;;55.20;43.07;;;3.60;93.90;;;;;;5099481;28;20063;-56
2020/12/31 05:28:31;;;;;;;55.23;43.00;;;3.70;94.00;;;;;;5102194;27;20036;-57
2020/12/31 05:30:59;;;;;;;56.80;42.73;;;3.70;93.50;;;;;;5096367;27;20147;-56
2020/12/31 05:33:33;;;;;;;58.67;44.37;;;3.70;93.80;;;;;;5102344;28;20093;-54
2020/12/31 05:36:16;;;;;;;42.53;33.13;;;3.60;93.80;;;;;;5096160;28;20023;-53
2020/12/31 05:38:54;;;;;;;59.03;43.17;;;3.60;93.50;;;;;;5077287;27;20039;-56
2020/12/31 05:41:21;;;;;;;60.10;43.93;;;3.60;94.00;;;;;;5093478;28;20121;-54
2020/12/31 05:43:53;;;;;;;56.13;42.73;;;3.60;93.80;;;;;;5102525;28;20043;-56
2020/12/31 05:46:38;;;;;;;54.87;42.53;;;3.50;93.80;;;;;;5091871;28;20044;-56
2020/12/31 05:49:09;;;;;;;55.08;41.53;;;3.60;93.80;;;;;;5085047;28;20126;-55
2020/12/31 05:51:40;;;;;;;52.60;39.70;;;3.60;93.80;;;;;;5094774;27;20071;-55
2020/12/31 05:54:10;;;;;;;54.67;42.30;;;3.60;93.80;;;;;;5094812;28;20081;-56
2020/12/31 05:56:37;;;;;;;55.67;40.63;;;3.60;93.90;;;;;;5096796;28;20052;-57
2020/12/31 05:59:23;;;;;;;47.27;34.93;;;3.60;93.90;;;;;;5098980;27;20027;-53
2020/12/31 06:02:02;;;;;;;42.80;33.77;;;3.60;94.60;;;;;;5102849;27;20061;-56
2020/12/31 06:04:31;;;;;;;42.83;34.53;;;3.60;94.20;;;;;;5093687;28;20400;-52
2020/12/31 06:07:01;;;;;;;47.37;35.07;;;3.50;93.80;;;;;;5096095;28;20066;-56
2020/12/31 06:09:35;;;;;;;44.37;34.77;;;3.50;93.80;;;;;;5097749;27;20059;-53
2020/12/31 06:12:08;;;;;;;46.07;34.70;;;3.40;93.90;;;;;;5097215;28;20036;-53
2020/12/31 06:14:36;;;;;;;45.27;32.83;;;3.40;93.80;;;;;;5091331;28;20081;-55
2020/12/31 06:17:05;;;;;;;45.30;32.33;;;3.30;94.00;;;;;;5085613;28;20128;-56
2020/12/31 06:19:39;;;;;;;40.33;30.97;;;3.20;93.90;;;;;;5084777;28;20162;-52
2020/12/31 06:22:09;;;;;;;39.93;32.03;;;3.20;93.80;;;;;;5095737;27;20126;-56
2020/12/31 06:24:39;;;;;;;43.30;31.23;;;3.20;93.80;;;;;;5092735;28;20032;-52
2020/12/31 06:27:10;;;;;;;40.77;32.20;;;3.20;93.90;;;;;;5097836;28;20040;-53
2020/12/31 06:29:49;;;;;;;37.30;30.60;;;3.20;93.60;;;;;;5084098;28;20602;-52
2020/12/31 06:32:30;;;;;;;39.43;30.93;;;3.20;93.50;;;;;;5102548;28;20050;-51
2020/12/31 06:35:06;;;;;;;40.97;31.27;;;3.20;93.60;;;;;;5090210;28;20074;-56
2020/12/31 06:37:32;;;;;;;42.13;32.20;;;3.20;93.70;;;;;;5086233;28;20123;-56
2020/12/31 06:40:32;;;;;;;44.83;34.67;;;3.20;93.60;;;;;;5095358;27;20115;-55
2020/12/31 06:43:16;;;;;;;40.73;32.10;;;3.10;93.60;;;;;;5021760;28;20039;-56
2020/12/31 06:45:42;;;;;;;40.10;31.30;;;3.20;93.60;;;;;;5043239;28;20044;-56
2020/12/31 06:48:26;;;;;;;44.60;32.03;;;3.20;93.60;;;;;;5102885;27;20038;-51
2020/12/31 06:50:55;;;;;;;38.97;32.17;;;3.10;93.60;;;;;;5092270;27;20127;-53
2020/12/31 06:53:46;;;;;;;39.10;30.03;;;3.10;93.30;;;;;;5099446;28;20043;-54
2020/12/31 06:56:13;;;;;;;40.63;30.60;;;3.10;93.10;;;;;;5042622;28;20138;-52
2020/12/31 06:58:44;;;;;;;37.27;30.10;;;3.00;93.30;;;;;;5095350;28;20090;-52
2020/12/31 07:01:29;;;;;;;38.50;31.07;;;3.00;93.40;;;;;;5093067;28;20039;-54
2020/12/31 07:03:59;;;;;;;37.33;30.75;;;3.10;93.00;;;;;;5100898;27;20358;-52
2020/12/31 07:06:26;;;;;;;37.97;30.57;;;3.10;93.50;;;;;;5091675;28;20043;-56
2020/12/31 07:08:55;;;;;;;43.27;33.23;;;3.10;93.30;;;;;;5097100;28;20447;-53
2020/12/31 07:11:39;;;;;;;41.07;30.77;;;3.10;93.80;;;;;;5090505;28;20047;-54
2020/12/31 07:14:17;;;;;;;40.27;31.60;;;3.10;93.40;;;;;;5096981;28;20696;-55
2020/12/31 07:16:57;;;;;;;44.57;33.93;;;3.10;93.60;;;;;;5095145;28;20492;-56
2020/12/31 07:19:28;;;;;;;42.37;33.10;;;3.10;93.70;;;;;;5098564;28;20055;-54
2020/12/31 07:21:54;;;;;;;46.73;35.57;;;3.10;93.80;;;;;;5094607;27;20115;-56
2020/12/31 07:24:20;;;;;;;43.80;32.80;;;3.10;93.90;;;;;;5087539;28;20119;-55
2020/12/31 07:26:47;;;;;;;43.17;32.40;;;3.20;94.10;;;;;;5081166;27;20411;-55
2020/12/31 07:29:13;;;;;;;43.30;33.40;;;3.30;93.90;;;;;;5097801;28;20044;-55
2020/12/31 07:31:42;;;;;;;42.13;33.50;;;3.20;93.70;;;;;;5093584;28;20028;-56
2020/12/31 07:34:30;;;;;;;44.90;34.27;;;3.30;93.90;;;;;;5102085;28;20047;-56
2020/12/31 07:37:06;;;;;;;42.10;32.87;;;3.20;93.80;;;;;;5093543;28;20036;-54
2020/12/31 07:39:34;;;;;;;41.93;31.87;;;3.30;93.70;;;;;;5098201;28;20428;-52
2020/12/31 07:42:14;;;;;;;46.30;35.40;;;3.40;94.10;;;;;;5090613;28;20044;-56
2020/12/31 07:44:57;;;;;;;44.40;33.33;;;3.30;93.70;;;;;;5042601;28;20044;-55
2020/12/31 07:47:26;;;;;;;44.33;31.77;;;3.40;93.90;;;;;;5089743;28;20036;-56
2020/12/31 07:49:53;;;;;;;44.23;33.37;;;3.40;93.70;;;;;;5096546;28;20048;-55
2020/12/31 07:52:21;;;;;;;45.50;34.20;;;3.40;93.70;;;;;;5092309;28;20036;-52
2020/12/31 07:54:47;;;;;;;45.30;34.47;;;3.50;93.90;;;;;;5095624;28;20043;-54
2020/12/31 07:57:14;;;;;;;44.97;34.33;;;3.50;93.80;;;;;;5074312;28;20370;-55
2020/12/31 07:59:41;;;;;;;47.37;35.33;;;3.50;93.90;;;;;;5096096;28;20043;-55
2020/12/31 08:02:07;;;;;;;46.00;34.27;;;3.50;93.90;;;;;;5096962;27;20075;-55
2020/12/31 08:04:34;;;;;;;47.47;35.03;;;3.60;94.00;;;;;;5097581;28;20462;-55
2020/12/31 08:07:02;;;;;;;48.97;34.50;;;3.70;94.10;;;;;;5091679;28;20118;-55
2020/12/31 08:09:28;;;;;;;43.50;34.20;;;3.70;94.00;;;;;;5100131;27;20097;-53
2020/12/31 08:11:54;;;;;;;49.67;36.37;;;3.70;94.20;;;;;;5102575;28;20032;-56
2020/12/31 08:14:19;;;;;;;51.40;37.70;;;3.80;93.90;;;;;;5097359;28;20048;-54
2020/12/31 08:17:05;;;;;;;47.03;36.33;;;3.80;94.00;;;;;;5083538;28;20061;-56
2020/12/31 08:19:31;;;;;;;50.47;36.73;;;3.80;94.00;;;;;;5093393;28;20055;-52
2020/12/31 08:22:04;;;;;;;52.47;37.20;;;3.90;93.90;;;;;;5098555;28;20037;-55
2020/12/31 08:24:34;;;;;;;53.07;39.03;;;3.90;94.00;;;;;;5091304;28;20032;-52
2020/12/31 08:27:01;;;;;;;48.60;38.80;;;3.90;93.80;;;;;;5099657;28;20073;-53
2020/12/31 08:29:34;;;;;;;49.07;39.63;;;4.00;93.90;;;;;;5094317;28;20035;-56
2020/12/31 08:32:05;;;;;;;52.30;40.57;;;4.00;93.80;;;;;;5093964;28;20043;-54
2020/12/31 08:34:37;;;;;;;58.70;44.43;;;4.00;93.70;;;;;;5091961;28;20493;-55
2020/12/31 08:37:06;;;;;;;59.83;44.63;;;4.00;93.20;;;;;;5084981;28;20493;-55
2020/12/31 08:39:32;;;;;;;58.80;43.77;;;4.00;93.20;;;;;;5094351;28;20065;-55
2020/12/31 08:42:00;;;;;;;56.67;43.03;;;4.00;93.30;;;;;;5101247;28;20432;-57
2020/12/31 08:44:27;;;;;;;59.80;44.73;;;4.10;93.40;;;;;;5093232;28;20055;-56
2020/12/31 08:46:54;;;;;;;56.27;42.90;;;4.10;93.20;;;;;;5095784;28;20046;-54
2020/12/31 08:49:26;;;;;;;56.87;42.93;;;4.10;93.60;;;;;;5078379;28;20043;-55
2020/12/31 08:51:52;;;;;;;55.33;43.63;;;4.20;93.70;;;;;;5100048;28;20130;-56
2020/12/31 08:54:18;;;;;;;59.73;45.50;;;4.30;93.70;;;;;;5097852;28;20508;-46
2020/12/31 08:56:45;;;;;;;59.17;43.30;;;4.30;93.40;;;;;;5093577;28;20032;-52
2020/12/31 08:59:14;;;;;;;62.90;43.80;;;4.20;93.70;;;;;;5097323;28;20648;-49
2020/12/31 09:01:42;;;;;;;50.50;37.53;;;4.30;93.70;;;;;;5096592;28;20048;-50
2020/12/31 09:04:18;;;;;;;52.93;39.83;;;4.30;93.60;;;;;;5095081;28;20036;-47
2020/12/31 09:06:57;;;;;;;56.87;40.23;;;4.40;93.70;;;;;;5100610;28;20044;-46
2020/12/31 09:09:28;;;;;;;58.13;42.17;;;4.40;93.20;;;;;;5087492;28;20033;-46
2020/12/31 09:11:58;;;;;;;55.47;42.30;;;4.50;93.10;;;;;;5088380;28;20069;-47
2020/12/31 09:14:25;;;;;;;56.87;43.30;;;4.60;93.40;;;;;;5097450;28;20552;-47
2020/12/31 09:16:51;;;;;;;55.33;42.63;;;4.70;93.00;;;;;;5100306;28;21166;-49
2020/12/31 09:19:17;;;;;;;54.77;44.57;;;4.60;92.30;;;;;;5101230;28;20443;-54
2020/12/31 09:21:43;;;;;;;65.87;47.73;;;4.70;92.40;;;;;;5100626;28;20131;-57
2020/12/31 09:24:24;;;;;;;64.27;46.27;;;4.80;92.30;;;;;;5100417;28;20497;-54
2020/12/31 09:26:53;;;;;;;59.10;45.63;;;4.90;92.40;;;;;;5094810;28;20036;-55
2020/12/31 09:29:19;;;;;;;62.03;46.23;;;5.00;92.50;;;;;;5082799;28;20081;-52
2020/12/31 09:31:45;;;;;;;59.67;46.33;;;5.10;92.30;;;;;;5093495;28;20044;-52
2020/12/31 09:34:11;;;;;;;62.83;47.63;;;5.30;92.40;;;;;;5099196;28;21713;-57
2020/12/31 09:36:37;;;;;;;58.23;44.73;;;5.40;92.30;;;;;;5093770;27;20058;-54
2020/12/31 09:39:02;;;;;;;50.60;39.53;;;5.60;92.40;;;;;;5100842;28;20032;-55
2020/12/31 09:41:28;;;;;;;49.83;37.70;;;5.60;91.40;;;;;;5094175;28;20044;-52
2020/12/31 09:43:54;;;;;;;44.80;37.87;;;5.60;91.40;;;;;;5096456;27;20505;-55
2020/12/31 09:46:23;;;;;;;45.57;35.77;;;5.60;91.10;;;;;;5097683;27;20040;-56
2020/12/31 09:48:49;;;;;;;43.23;36.57;;;5.60;90.70;;;;;;5097006;27;20092;-56
2020/12/31 09:51:16;;;;;;;45.90;36.70;;;5.70;90.70;;;;;;5096506;28;20043;-52
2020/12/31 09:53:42;;;;;;;41.80;33.70;;;5.60;90.50;;;;;;5096218;28;20036;-56
2020/12/31 09:56:08;;;;;;;41.47;33.53;;;5.40;89.80;;;;;;5097744;28;20497;-56
2020/12/31 09:58:34;;;;;;;42.27;34.60;;;5.40;90.50;;;;;;5094855;28;20046;-52
2020/12/31 10:01:02;;;;;;;44.67;35.07;;;5.40;90.20;;;;;;5097391;27;20042;-55
2020/12/31 10:03:28;;;;;;;39.60;32.77;;;5.30;89.20;;;;;;5092406;28;20051;-52
2020/12/31 10:05:54;;;;;;;38.30;31.80;;;5.30;90.40;;;;;;5100047;28;20044;-52
2020/12/31 10:08:20;;;;;;;38.40;32.90;;;5.20;89.70;;;;;;5092319;27;20520;-54
2020/12/31 10:10:46;;;;;;;36.63;30.80;;;5.20;90.10;;;;;;5098370;27;20417;-56
2020/12/31 10:13:12;;;;;;;40.43;32.53;;;5.30;90.30;;;;;;5093158;27;20490;-57
2020/12/31 10:15:38;;;;;;;36.83;31.63;;;5.30;90.30;;;;;;5098286;28;20348;-55
2020/12/31 10:18:04;;;;;;;39.53;32.70;;;5.40;90.30;;;;;;5098797;28;20114;-51
2020/12/31 10:20:30;;;;;;;43.67;33.40;;;5.30;90.60;;;;;;5103226;28;20039;-56
2020/12/31 10:22:55;;;;;;;41.87;32.80;;;5.30;91.00;;;;;;5093345;28;20473;-55
2020/12/31 10:25:21;;;;;;;41.90;34.53;;;5.30;90.80;;;;;;5099754;28;20219;-52
2020/12/31 10:27:50;;;;;;;42.03;34.43;;;5.30;90.50;;;;;;5095534;28;20031;-52
2020/12/31 10:30:16;;;;;;;44.10;35.37;;;5.40;91.00;;;;;;5100986;27;20104;-52
2020/12/31 10:32:42;;;;;;;44.20;35.20;;;5.30;90.70;;;;;;5095616;27;21177;-55
2020/12/31 10:35:09;;;;;;;41.33;35.73;;;5.20;90.80;;;;;;5098124;27;20047;-56
2020/12/31 10:37:34;;;;;;;40.97;34.53;;;5.20;91.40;;;;;;5094578;28;20062;-55
2020/12/31 10:40:00;;;;;;;43.17;35.00;;;5.20;90.90;;;;;;5096468;27;20031;-56
2020/12/31 10:42:27;;;;;;;39.50;33.83;;;5.20;91.10;;;;;;5081924;28;20039;-53
2020/12/31 10:44:53;;;;;;;47.70;35.40;;;5.30;90.80;;;;;;5092944;28;20473;-55
2020/12/31 10:47:19;;;;;;;43.43;34.90;;;5.40;91.30;;;;;;5096362;28;20047;-53
2020/12/31 10:56:28;;;;;;;44.67;33.43;;;5.90;89.90;;;;;;5033682;28;20051;-56
2020/12/31 10:58:54;;;;;;;40.27;30.73;;;6.10;90.60;;;;;;5091966;28;20035;-57
2020/12/31 11:01:20;;;;;;;35.63;27.33;;;6.30;89.90;;;;;;5100813;27;20127;-56
2020/12/31 11:03:46;;;;;;;33.33;25.33;;;6.30;89.40;;;;;;5091388;27;20105;-53
2020/12/31 11:06:21;;;;;;;31.63;23.33;;;6.40;87.50;;;;;;5101930;28;20050;-52
2020/12/31 11:08:47;;;;;;;33.17;25.33;;;6.40;87.90;;;;;;5093945;28;20032;-53
2020/12/31 11:11:33;;;;;;;30.00;23.90;;;6.50;89.40;;;;;;5101748;27;20028;-55
2020/12/31 11:13:59;;;;;;;34.83;23.87;;;6.60;87.20;;;;;;5096658;27;20043;-55
2020/12/31 11:16:25;;;;;;;28.40;22.47;;;6.40;88.40;;;;;;5091626;28;20028;-55
2020/12/31 11:18:50;;;;;;;30.80;24.03;;;6.40;87.40;;;;;;5082841;28;20036;-56
2020/12/31 11:21:19;;;;;;;32.80;23.23;;;6.40;88.80;;;;;;5077926;28;20035;-57
2020/12/31 11:23:45;;;;;;;30.47;23.87;;;6.50;89.20;;;;;;5092782;28;20519;-55
2020/12/31 11:26:13;;;;;;;31.23;23.30;;;6.50;88.00;;;;;;5080545;28;20039;-56
2020/12/31 11:28:39;;;;;;;27.57;22.47;;;6.50;88.20;;;;;;5096220;28;20055;-53
2020/12/31 11:31:12;;;;;;;27.80;22.37;;;6.40;86.80;;;;;;5096179;28;20161;-56
2020/12/31 11:33:38;;;;;;;28.23;21.10;;;6.50;86.50;;;;;;5099500;28;20044;-55
2020/12/31 11:36:08;;;;;;;25.67;20.70;;;6.50;88.50;;;;;;5092988;28;20063;-54
2020/12/31 11:38:34;;;;;;;26.47;20.73;;;6.60;86.70;;;;;;5101762;28;20063;-56
2020/12/31 11:41:00;;;;;;;23.97;18.57;;;6.60;86.80;;;;;;5091279;28;20168;-51
2020/12/31 11:43:25;;;;;;;20.40;16.73;;;6.60;85.20;;;;;;5098964;28;20042;-56
2020/12/31 11:45:51;;;;;;;21.57;16.03;;;6.60;85.00;;;;;;5090327;28;20126;-56
2020/12/31 11:48:17;;;;;;;35.03;27.83;;;6.50;87.10;;;;;;5098124;28;20036;-55
2020/12/31 11:50:42;;;;;;;41.77;32.77;;;6.40;87.00;;;;;;5092650;28;21382;-56
2020/12/31 11:53:08;;;;;;;41.87;33.10;;;6.30;88.60;;;;;;5099541;28;20754;-56
2020/12/31 11:55:34;;;;;;;38.90;30.63;;;6.30;89.50;;;;;;5093202;28;20234;-57
2020/12/31 11:57:59;;;;;;;36.87;30.00;;;6.30;87.70;;;;;;5094107;28;20477;-55
2020/12/31 12:00:25;;;;;;;33.57;27.90;;;6.40;88.40;;;;;;5080927;28;20040;-57
2020/12/31 12:02:50;;;;;;;33.90;27.87;;;6.40;88.50;;;;;;5082978;28;20477;-56
2020/12/31 12:05:16;;;;;;;32.37;26.30;;;6.50;88.90;;;;;;5099442;28;20486;-54
2020/12/31 12:07:42;;;;;;;21.23;18.47;;;6.70;86.60;;;;;;5090573;28;20040;-55
2020/12/31 12:10:08;;;;;;;24.43;19.60;;;6.70;83.20;;;;;;5096545;28;20036;-49
2020/12/31 12:12:34;;;;;;;26.90;21.60;;;6.90;84.10;;;;;;5094205;28;20108;-55
2020/12/31 12:14:59;;;;;;;21.10;16.67;;;7.00;82.90;;;;;;5096566;28;20032;-54
2020/12/31 12:17:25;;;;;;;22.50;18.60;;;7.20;83.80;;;;;;5082157;28;20422;-56
2020/12/31 12:19:51;;;;;;;17.90;14.57;;;7.20;82.10;;;;;;5087713;28;20053;-57
2020/12/31 12:22:16;;;;;;;18.37;14.43;;;7.10;82.70;;;;;;5098762;28;20043;-53
2020/12/31 12:24:42;;;;;;;18.30;13.97;;;7.00;81.10;;;;;;5098506;28;20116;-55
2020/12/31 12:27:07;;;;;;;13.07;10.87;;;7.00;81.70;;;;;;5092604;28;20067;-56
2020/12/31 12:29:34;;;;;;;15.90;10.53;;;6.90;81.20;;;;;;5095339;28;20118;-57
2020/12/31 12:31:59;;;;;;;11.87;9.87;;;6.80;80.20;;;;;;5099246;28;20085;-56
2020/12/31 12:34:26;;;;;;;12.80;10.60;;;6.70;79.80;;;;;;5094866;28;20048;-56
2020/12/31 12:36:51;;;;;;;13.80;11.57;;;6.60;79.10;;;;;;5100833;28;20040;-57
2020/12/31 12:39:17;;;;;;;15.57;11.77;;;6.60;79.50;;;;;;5093744;28;20031;-53
2020/12/31 12:41:44;;;;;;;16.00;13.57;;;6.60;82.20;;;;;;5094111;28;20107;-52
2020/12/31 12:44:11;;;;;;;14.80;11.77;;;6.60;83.20;;;;;;5063631;28;20048;-54
2020/12/31 12:46:37;;;;;;;15.77;11.87;;;6.60;82.20;;;;;;5098799;28;20078;-56
2020/12/31 12:49:03;;;;;;;11.30;9.77;;;6.40;80.60;;;;;;5098676;28;20059;-59
2020/12/31 12:51:35;;;;;;;12.03;9.33;;;6.40;80.90;;;;;;5102163;28;20093;-60
2020/12/31 12:54:01;;;;;;;14.77;11.50;;;6.60;82.10;;;;;;5093097;28;20067;-61